sensor_id;sensor_type;location;lat;lon;timestamp;P1;durP1;ratioP1;P2;durP2;ratioP2
33830;SDS011;20137;48.834;8.732;2023-07-29T00:02:16;3.22;;;0.98;;
33830;SDS011;20137;48.834;8.732;2023-07-29T00:04:42;1.13;;;0.90;;
33830;SDS011;20137;48.834;8.732;2023-07-29T00:07:08;1.30;;;0.85;;
33830;SDS011;20137;48.834;8.732;2023-07-29T00:09:33;1.63;;;1.10;;
33830;SDS011;20137;48.834;8.732;2023-07-29T00:11:59;2.10;;;0.80;;
33830;SDS011;20137;48.834;8.732;2023-07-29T00:14:25;3.65;;;1.00;;
33830;SDS011;20137;48.834;8.732;2023-07-29T00:16:50;2.78;;;0.80;;
33830;SDS011;20137;48.834;8.732;2023-07-29T00:19:16;3.90;;;0.80;;
33830;SDS011;20137;48.834;8.732;2023-07-29T00:21:42;3.25;;;1.10;;
33830;SDS011;20137;48.834;8.732;2023-07-29T00:24:08;1.45;;;1.08;;
33830;SDS011;20137;48.834;8.732;2023-07-29T00:26:33;2.70;;;0.80;;
33830;SDS011;20137;48.834;8.732;2023-07-29T00:29:00;5.68;;;1.13;;
33830;SDS011;20137;48.834;8.732;2023-07-29T00:31:26;0.70;;;0.70;;
33830;SDS011;20137;48.834;8.732;2023-07-29T00:33:51;1.40;;;0.90;;
33830;SDS011;20137;48.834;8.732;2023-07-29T00:36:18;1.33;;;0.80;;
33830;SDS011;20137;48.834;8.732;2023-07-29T00:38:43;1.30;;;0.90;;
33830;SDS011;20137;48.834;8.732;2023-07-29T00:41:09;2.22;;;1.00;;
33830;SDS011;20137;48.834;8.732;2023-07-29T00:43:38;3.38;;;0.95;;
33830;SDS011;20137;48.834;8.732;2023-07-29T00:46:04;2.53;;;1.08;;
33830;SDS011;20137;48.834;8.732;2023-07-29T00:48:30;1.98;;;0.82;;
33830;SDS011;20137;48.834;8.732;2023-07-29T00:50:56;2.28;;;0.80;;
33830;SDS011;20137;48.834;8.732;2023-07-29T00:53:22;1.55;;;0.98;;
33830;SDS011;20137;48.834;8.732;2023-07-29T00:55:48;2.80;;;1.10;;
33830;SDS011;20137;48.834;8.732;2023-07-29T00:58:14;1.52;;;0.90;;
33830;SDS011;20137;48.834;8.732;2023-07-29T01:00:40;1.83;;;0.93;;
33830;SDS011;20137;48.834;8.732;2023-07-29T01:03:06;3.08;;;0.90;;
33830;SDS011;20137;48.834;8.732;2023-07-29T01:11:00;1.52;;;0.90;;
33830;SDS011;20137;48.834;8.732;2023-07-29T01:16:00;1.15;;;0.93;;
33830;SDS011;20137;48.834;8.732;2023-07-29T01:18:34;1.63;;;1.23;;
33830;SDS011;20137;48.834;8.732;2023-07-29T01:21:03;1.00;;;0.90;;
33830;SDS011;20137;48.834;8.732;2023-07-29T01:23:33;1.80;;;1.13;;
33830;SDS011;20137;48.834;8.732;2023-07-29T01:26:00;1.98;;;1.00;;
33830;SDS011;20137;48.834;8.732;2023-07-29T01:28:27;3.28;;;1.20;;
33830;SDS011;20137;48.834;8.732;2023-07-29T01:30:57;1.75;;;1.10;;
33830;SDS011;20137;48.834;8.732;2023-07-29T01:33:26;2.25;;;1.30;;
33830;SDS011;20137;48.834;8.732;2023-07-29T01:35:57;4.25;;;1.33;;
33830;SDS011;20137;48.834;8.732;2023-07-29T01:38:28;1.35;;;1.17;;
33830;SDS011;20137;48.834;8.732;2023-07-29T01:41:02;1.33;;;1.17;;
33830;SDS011;20137;48.834;8.732;2023-07-29T01:43:31;1.98;;;1.27;;
33830;SDS011;20137;48.834;8.732;2023-07-29T01:45:57;4.18;;;1.17;;
33830;SDS011;20137;48.834;8.732;2023-07-29T01:48:24;5.55;;;1.35;;
33830;SDS011;20137;48.834;8.732;2023-07-29T01:50:50;1.38;;;1.00;;
33830;SDS011;20137;48.834;8.732;2023-07-29T01:53:16;5.45;;;1.30;;
33830;SDS011;20137;48.834;8.732;2023-07-29T01:55:42;1.60;;;1.20;;
33830;SDS011;20137;48.834;8.732;2023-07-29T01:58:09;1.65;;;1.30;;
33830;SDS011;20137;48.834;8.732;2023-07-29T02:00:35;3.47;;;1.27;;
33830;SDS011;20137;48.834;8.732;2023-07-29T02:03:01;1.33;;;1.02;;
33830;SDS011;20137;48.834;8.732;2023-07-29T02:05:27;1.20;;;1.10;;
33830;SDS011;20137;48.834;8.732;2023-07-29T02:07:53;1.58;;;1.15;;
33830;SDS011;20137;48.834;8.732;2023-07-29T02:10:19;1.60;;;1.23;;
33830;SDS011;20137;48.834;8.732;2023-07-29T02:12:45;4.45;;;1.55;;
33830;SDS011;20137;48.834;8.732;2023-07-29T02:15:10;3.35;;;1.42;;
33830;SDS011;20137;48.834;8.732;2023-07-29T02:17:36;2.78;;;1.10;;
33830;SDS011;20137;48.834;8.732;2023-07-29T02:20:02;2.28;;;1.30;;
33830;SDS011;20137;48.834;8.732;2023-07-29T02:22:28;3.63;;;1.13;;
33830;SDS011;20137;48.834;8.732;2023-07-29T02:24:54;2.63;;;1.67;;
33830;SDS011;20137;48.834;8.732;2023-07-29T02:27:20;1.70;;;1.20;;
33830;SDS011;20137;48.834;8.732;2023-07-29T02:29:46;2.13;;;1.35;;
33830;SDS011;20137;48.834;8.732;2023-07-29T02:32:12;2.88;;;1.30;;
33830;SDS011;20137;48.834;8.732;2023-07-29T02:34:37;2.30;;;1.33;;
33830;SDS011;20137;48.834;8.732;2023-07-29T02:37:03;1.80;;;1.33;;
33830;SDS011;20137;48.834;8.732;2023-07-29T02:39:30;2.38;;;1.10;;
33830;SDS011;20137;48.834;8.732;2023-07-29T02:41:55;2.95;;;1.05;;
33830;SDS011;20137;48.834;8.732;2023-07-29T02:44:23;2.13;;;1.25;;
33830;SDS011;20137;48.834;8.732;2023-07-29T02:46:49;1.60;;;1.02;;
33830;SDS011;20137;48.834;8.732;2023-07-29T02:49:14;2.20;;;1.13;;
33830;SDS011;20137;48.834;8.732;2023-07-29T02:51:40;1.65;;;1.10;;
33830;SDS011;20137;48.834;8.732;2023-07-29T02:54:06;2.13;;;1.15;;
33830;SDS011;20137;48.834;8.732;2023-07-29T02:56:32;1.30;;;1.20;;
33830;SDS011;20137;48.834;8.732;2023-07-29T02:58:57;1.65;;;1.30;;
33830;SDS011;20137;48.834;8.732;2023-07-29T03:01:23;3.17;;;1.35;;
33830;SDS011;20137;48.834;8.732;2023-07-29T03:03:51;4.82;;;1.15;;
33830;SDS011;20137;48.834;8.732;2023-07-29T03:06:18;4.95;;;1.40;;
33830;SDS011;20137;48.834;8.732;2023-07-29T03:08:44;1.33;;;1.10;;
33830;SDS011;20137;48.834;8.732;2023-07-29T03:11:13;1.45;;;1.30;;
33830;SDS011;20137;48.834;8.732;2023-07-29T03:13:39;1.90;;;1.05;;
33830;SDS011;20137;48.834;8.732;2023-07-29T03:18:41;3.33;;;1.10;;
33830;SDS011;20137;48.834;8.732;2023-07-29T03:21:08;1.95;;;1.17;;
33830;SDS011;20137;48.834;8.732;2023-07-29T03:23:35;1.67;;;1.02;;
33830;SDS011;20137;48.834;8.732;2023-07-29T03:26:02;1.10;;;0.90;;
33830;SDS011;20137;48.834;8.732;2023-07-29T03:28:35;1.75;;;0.82;;
33830;SDS011;20137;48.834;8.732;2023-07-29T03:31:01;1.02;;;0.93;;
33830;SDS011;20137;48.834;8.732;2023-07-29T03:33:28;1.98;;;1.00;;
33830;SDS011;20137;48.834;8.732;2023-07-29T03:35:54;1.33;;;1.10;;
33830;SDS011;20137;48.834;8.732;2023-07-29T03:38:20;1.67;;;1.17;;
33830;SDS011;20137;48.834;8.732;2023-07-29T03:40:46;1.08;;;0.98;;
33830;SDS011;20137;48.834;8.732;2023-07-29T03:43:12;1.70;;;1.05;;
33830;SDS011;20137;48.834;8.732;2023-07-29T03:45:38;1.75;;;1.10;;
33830;SDS011;20137;48.834;8.732;2023-07-29T03:48:05;4.45;;;1.25;;
33830;SDS011;20137;48.834;8.732;2023-07-29T03:50:32;4.93;;;1.25;;
33830;SDS011;20137;48.834;8.732;2023-07-29T03:52:59;3.33;;;1.48;;
33830;SDS011;20137;48.834;8.732;2023-07-29T03:55:25;2.30;;;1.35;;
33830;SDS011;20137;48.834;8.732;2023-07-29T03:57:51;1.30;;;1.05;;
33830;SDS011;20137;48.834;8.732;2023-07-29T04:00:17;1.45;;;1.35;;
33830;SDS011;20137;48.834;8.732;2023-07-29T04:02:43;2.60;;;1.27;;
33830;SDS011;20137;48.834;8.732;2023-07-29T04:05:10;1.40;;;1.30;;
33830;SDS011;20137;48.834;8.732;2023-07-29T04:07:36;3.50;;;1.40;;
33830;SDS011;20137;48.834;8.732;2023-07-29T04:10:02;1.52;;;1.25;;
33830;SDS011;20137;48.834;8.732;2023-07-29T04:12:29;3.53;;;1.30;;
33830;SDS011;20137;48.834;8.732;2023-07-29T04:14:55;2.80;;;1.20;;
33830;SDS011;20137;48.834;8.732;2023-07-29T04:17:21;1.23;;;1.13;;
33830;SDS011;20137;48.834;8.732;2023-07-29T04:19:47;2.92;;;1.70;;
33830;SDS011;20137;48.834;8.732;2023-07-29T04:22:12;6.20;;;1.42;;
33830;SDS011;20137;48.834;8.732;2023-07-29T04:24:39;4.25;;;1.63;;
33830;SDS011;20137;48.834;8.732;2023-07-29T04:27:05;4.25;;;1.95;;
33830;SDS011;20137;48.834;8.732;2023-07-29T04:29:31;6.25;;;1.70;;
33830;SDS011;20137;48.834;8.732;2023-07-29T04:31:56;3.53;;;1.70;;
33830;SDS011;20137;48.834;8.732;2023-07-29T04:34:22;4.75;;;1.65;;
33830;SDS011;20137;48.834;8.732;2023-07-29T04:36:48;2.90;;;1.70;;
33830;SDS011;20137;48.834;8.732;2023-07-29T04:39:13;3.75;;;1.70;;
33830;SDS011;20137;48.834;8.732;2023-07-29T04:41:39;2.00;;;1.42;;
33830;SDS011;20137;48.834;8.732;2023-07-29T04:44:05;2.92;;;1.45;;
33830;SDS011;20137;48.834;8.732;2023-07-29T04:46:32;2.75;;;1.48;;
33830;SDS011;20137;48.834;8.732;2023-07-29T04:48:58;2.95;;;1.60;;
33830;SDS011;20137;48.834;8.732;2023-07-29T04:51:23;3.17;;;1.63;;
33830;SDS011;20137;48.834;8.732;2023-07-29T04:53:50;4.07;;;1.40;;
33830;SDS011;20137;48.834;8.732;2023-07-29T04:56:15;4.63;;;1.35;;
33830;SDS011;20137;48.834;8.732;2023-07-29T04:58:41;2.40;;;1.30;;
33830;SDS011;20137;48.834;8.732;2023-07-29T05:01:07;3.03;;;1.70;;
33830;SDS011;20137;48.834;8.732;2023-07-29T05:03:33;2.85;;;1.38;;
33830;SDS011;20137;48.834;8.732;2023-07-29T05:05:59;3.15;;;1.48;;
33830;SDS011;20137;48.834;8.732;2023-07-29T05:08:27;2.35;;;1.27;;
33830;SDS011;20137;48.834;8.732;2023-07-29T05:10:53;3.92;;;1.50;;
33830;SDS011;20137;48.834;8.732;2023-07-29T05:13:19;4.30;;;1.70;;
33830;SDS011;20137;48.834;8.732;2023-07-29T05:15:46;1.40;;;1.20;;
33830;SDS011;20137;48.834;8.732;2023-07-29T05:18:12;3.78;;;1.20;;
33830;SDS011;20137;48.834;8.732;2023-07-29T05:20:38;3.45;;;1.30;;
33830;SDS011;20137;48.834;8.732;2023-07-29T05:23:04;3.47;;;1.20;;
33830;SDS011;20137;48.834;8.732;2023-07-29T05:25:30;4.75;;;1.10;;
33830;SDS011;20137;48.834;8.732;2023-07-29T05:27:55;2.90;;;1.02;;
33830;SDS011;20137;48.834;8.732;2023-07-29T05:30:22;2.50;;;1.10;;
33830;SDS011;20137;48.834;8.732;2023-07-29T05:32:48;1.73;;;1.00;;
33830;SDS011;20137;48.834;8.732;2023-07-29T05:35:14;2.15;;;1.10;;
33830;SDS011;20137;48.834;8.732;2023-07-29T05:37:40;1.58;;;1.10;;
33830;SDS011;20137;48.834;8.732;2023-07-29T05:40:07;2.17;;;1.27;;
33830;SDS011;20137;48.834;8.732;2023-07-29T05:42:36;4.28;;;1.17;;
33830;SDS011;20137;48.834;8.732;2023-07-29T05:45:01;1.55;;;0.93;;
33830;SDS011;20137;48.834;8.732;2023-07-29T05:47:27;2.05;;;1.20;;
33830;SDS011;20137;48.834;8.732;2023-07-29T05:49:53;2.72;;;1.10;;
33830;SDS011;20137;48.834;8.732;2023-07-29T05:52:19;3.83;;;1.20;;
33830;SDS011;20137;48.834;8.732;2023-07-29T05:54:45;4.10;;;1.10;;
33830;SDS011;20137;48.834;8.732;2023-07-29T05:57:11;3.17;;;1.10;;
33830;SDS011;20137;48.834;8.732;2023-07-29T05:59:37;2.25;;;1.02;;
33830;SDS011;20137;48.834;8.732;2023-07-29T06:02:04;2.28;;;1.10;;
33830;SDS011;20137;48.834;8.732;2023-07-29T06:04:30;1.52;;;1.00;;
33830;SDS011;20137;48.834;8.732;2023-07-29T06:06:55;2.65;;;1.00;;
33830;SDS011;20137;48.834;8.732;2023-07-29T06:09:21;1.83;;;1.20;;
33830;SDS011;20137;48.834;8.732;2023-07-29T06:11:47;1.50;;;1.05;;
33830;SDS011;20137;48.834;8.732;2023-07-29T06:14:13;1.33;;;0.90;;
33830;SDS011;20137;48.834;8.732;2023-07-29T06:16:39;1.55;;;1.13;;
33830;SDS011;20137;48.834;8.732;2023-07-29T06:19:04;3.45;;;1.30;;
33830;SDS011;20137;48.834;8.732;2023-07-29T06:21:30;2.70;;;1.38;;
33830;SDS011;20137;48.834;8.732;2023-07-29T06:23:56;2.42;;;0.75;;
33830;SDS011;20137;48.834;8.732;2023-07-29T06:26:22;2.22;;;1.15;;
33830;SDS011;20137;48.834;8.732;2023-07-29T06:28:48;3.17;;;1.50;;
33830;SDS011;20137;48.834;8.732;2023-07-29T06:31:14;4.65;;;1.70;;
33830;SDS011;20137;48.834;8.732;2023-07-29T06:33:39;3.33;;;1.30;;
33830;SDS011;20137;48.834;8.732;2023-07-29T06:36:05;2.35;;;1.02;;
33830;SDS011;20137;48.834;8.732;2023-07-29T06:38:31;2.17;;;1.20;;
33830;SDS011;20137;48.834;8.732;2023-07-29T06:40:57;3.17;;;1.00;;
33830;SDS011;20137;48.834;8.732;2023-07-29T06:43:22;2.67;;;1.27;;
33830;SDS011;20137;48.834;8.732;2023-07-29T06:45:48;2.85;;;1.30;;
33830;SDS011;20137;48.834;8.732;2023-07-29T06:48:14;1.92;;;1.40;;
33830;SDS011;20137;48.834;8.732;2023-07-29T06:50:40;2.45;;;1.20;;
33830;SDS011;20137;48.834;8.732;2023-07-29T06:53:05;2.08;;;1.30;;
33830;SDS011;20137;48.834;8.732;2023-07-29T06:55:31;1.83;;;1.25;;
33830;SDS011;20137;48.834;8.732;2023-07-29T06:57:57;2.20;;;1.20;;
33830;SDS011;20137;48.834;8.732;2023-07-29T07:00:23;2.20;;;1.20;;
33830;SDS011;20137;48.834;8.732;2023-07-29T07:02:49;2.83;;;1.10;;
33830;SDS011;20137;48.834;8.732;2023-07-29T07:05:14;1.65;;;1.05;;
33830;SDS011;20137;48.834;8.732;2023-07-29T07:07:40;3.13;;;1.25;;
33830;SDS011;20137;48.834;8.732;2023-07-29T07:10:06;1.20;;;1.10;;
33830;SDS011;20137;48.834;8.732;2023-07-29T07:12:32;1.33;;;1.17;;
33830;SDS011;20137;48.834;8.732;2023-07-29T07:14:57;2.00;;;0.90;;
33830;SDS011;20137;48.834;8.732;2023-07-29T07:17:25;1.40;;;1.10;;
33830;SDS011;20137;48.834;8.732;2023-07-29T07:19:50;1.65;;;0.95;;
33830;SDS011;20137;48.834;8.732;2023-07-29T07:22:16;1.75;;;1.05;;
33830;SDS011;20137;48.834;8.732;2023-07-29T07:24:42;2.05;;;1.20;;
33830;SDS011;20137;48.834;8.732;2023-07-29T07:27:09;2.00;;;1.20;;
33830;SDS011;20137;48.834;8.732;2023-07-29T07:29:36;2.53;;;1.40;;
33830;SDS011;20137;48.834;8.732;2023-07-29T07:32:02;1.85;;;1.30;;
33830;SDS011;20137;48.834;8.732;2023-07-29T07:34:27;2.03;;;0.98;;
33830;SDS011;20137;48.834;8.732;2023-07-29T07:36:53;4.22;;;1.10;;
33830;SDS011;20137;48.834;8.732;2023-07-29T07:39:19;2.25;;;1.10;;
33830;SDS011;20137;48.834;8.732;2023-07-29T07:41:44;1.10;;;0.98;;
33830;SDS011;20137;48.834;8.732;2023-07-29T07:44:10;2.67;;;1.13;;
33830;SDS011;20137;48.834;8.732;2023-07-29T07:46:40;2.20;;;1.02;;
33830;SDS011;20137;48.834;8.732;2023-07-29T07:49:06;1.27;;;1.05;;
33830;SDS011;20137;48.834;8.732;2023-07-29T07:51:32;2.35;;;1.02;;
33830;SDS011;20137;48.834;8.732;2023-07-29T07:53:57;0.80;;;0.80;;
33830;SDS011;20137;48.834;8.732;2023-07-29T07:56:23;1.52;;;0.85;;
33830;SDS011;20137;48.834;8.732;2023-07-29T07:58:49;1.92;;;0.88;;
33830;SDS011;20137;48.834;8.732;2023-07-29T08:01:15;1.10;;;0.70;;
33830;SDS011;20137;48.834;8.732;2023-07-29T08:03:41;2.88;;;1.15;;
33830;SDS011;20137;48.834;8.732;2023-07-29T08:06:07;2.45;;;1.05;;
33830;SDS011;20137;48.834;8.732;2023-07-29T08:08:33;1.02;;;0.88;;
33830;SDS011;20137;48.834;8.732;2023-07-29T08:10:59;2.38;;;0.98;;
33830;SDS011;20137;48.834;8.732;2023-07-29T08:13:24;1.63;;;0.90;;
33830;SDS011;20137;48.834;8.732;2023-07-29T08:15:50;1.65;;;0.98;;
33830;SDS011;20137;48.834;8.732;2023-07-29T08:18:17;1.75;;;0.93;;
33830;SDS011;20137;48.834;8.732;2023-07-29T08:20:53;1.67;;;1.10;;
33830;SDS011;20137;48.834;8.732;2023-07-29T08:23:20;2.25;;;0.93;;
33830;SDS011;20137;48.834;8.732;2023-07-29T08:25:51;1.38;;;1.08;;
33830;SDS011;20137;48.834;8.732;2023-07-29T08:28:21;2.28;;;1.10;;
33830;SDS011;20137;48.834;8.732;2023-07-29T08:30:48;1.58;;;1.00;;
33830;SDS011;20137;48.834;8.732;2023-07-29T08:33:14;1.65;;;1.08;;
33830;SDS011;20137;48.834;8.732;2023-07-29T08:35:40;1.38;;;1.00;;
33830;SDS011;20137;48.834;8.732;2023-07-29T08:38:06;1.92;;;0.90;;
33830;SDS011;20137;48.834;8.732;2023-07-29T08:40:33;1.30;;;0.77;;
33830;SDS011;20137;48.834;8.732;2023-07-29T08:43:02;2.63;;;1.00;;
33830;SDS011;20137;48.834;8.732;2023-07-29T08:45:34;1.63;;;1.10;;
33830;SDS011;20137;48.834;8.732;2023-07-29T08:48:02;2.28;;;0.93;;
33830;SDS011;20137;48.834;8.732;2023-07-29T08:50:32;3.47;;;0.82;;
33830;SDS011;20137;48.834;8.732;2023-07-29T08:52:58;0.85;;;0.80;;
33830;SDS011;20137;48.834;8.732;2023-07-29T08:55:25;1.30;;;0.90;;
33830;SDS011;20137;48.834;8.732;2023-07-29T08:57:51;1.83;;;1.00;;
33830;SDS011;20137;48.834;8.732;2023-07-29T09:00:18;1.63;;;1.00;;
33830;SDS011;20137;48.834;8.732;2023-07-29T09:02:44;1.23;;;1.05;;
33830;SDS011;20137;48.834;8.732;2023-07-29T09:05:10;1.30;;;0.80;;
33830;SDS011;20137;48.834;8.732;2023-07-29T09:07:36;2.25;;;1.10;;
33830;SDS011;20137;48.834;8.732;2023-07-29T09:10:02;1.38;;;0.85;;
33830;SDS011;20137;48.834;8.732;2023-07-29T09:12:31;1.63;;;1.23;;
33830;SDS011;20137;48.834;8.732;2023-07-29T09:14:57;1.70;;;1.08;;
33830;SDS011;20137;48.834;8.732;2023-07-29T09:17:23;2.42;;;0.90;;
33830;SDS011;20137;48.834;8.732;2023-07-29T09:19:49;1.10;;;1.00;;
33830;SDS011;20137;48.834;8.732;2023-07-29T09:22:22;1.88;;;1.30;;
33830;SDS011;20137;48.834;8.732;2023-07-29T09:24:47;3.08;;;1.05;;
33830;SDS011;20137;48.834;8.732;2023-07-29T09:27:26;2.42;;;1.25;;
33830;SDS011;20137;48.834;8.732;2023-07-29T09:29:53;1.77;;;1.40;;
33830;SDS011;20137;48.834;8.732;2023-07-29T09:32:22;1.13;;;1.02;;
33830;SDS011;20137;48.834;8.732;2023-07-29T09:34:49;1.85;;;1.23;;
33830;SDS011;20137;48.834;8.732;2023-07-29T09:37:24;1.25;;;1.13;;
33830;SDS011;20137;48.834;8.732;2023-07-29T09:39:51;3.97;;;1.27;;
33830;SDS011;20137;48.834;8.732;2023-07-29T09:42:20;1.20;;;0.90;;
33830;SDS011;20137;48.834;8.732;2023-07-29T09:44:50;1.30;;;1.20;;
33830;SDS011;20137;48.834;8.732;2023-07-29T09:47:23;1.33;;;1.00;;
33830;SDS011;20137;48.834;8.732;2023-07-29T09:49:50;1.08;;;0.77;;
33830;SDS011;20137;48.834;8.732;2023-07-29T09:52:18;3.15;;;1.27;;
33830;SDS011;20137;48.834;8.732;2023-07-29T09:54:44;1.95;;;1.00;;
33830;SDS011;20137;48.834;8.732;2023-07-29T09:57:13;1.85;;;0.82;;
33830;SDS011;20137;48.834;8.732;2023-07-29T09:59:39;1.60;;;1.05;;
33830;SDS011;20137;48.834;8.732;2023-07-29T10:02:06;2.25;;;1.10;;
33830;SDS011;20137;48.834;8.732;2023-07-29T10:04:38;1.23;;;1.00;;
33830;SDS011;20137;48.834;8.732;2023-07-29T10:07:06;1.38;;;1.25;;
33830;SDS011;20137;48.834;8.732;2023-07-29T10:09:32;1.50;;;1.00;;
33830;SDS011;20137;48.834;8.732;2023-07-29T10:11:59;0.93;;;0.82;;
33830;SDS011;20137;48.834;8.732;2023-07-29T10:14:26;1.08;;;0.80;;
33830;SDS011;20137;48.834;8.732;2023-07-29T10:16:53;0.82;;;0.80;;
33830;SDS011;20137;48.834;8.732;2023-07-29T10:19:20;1.50;;;1.10;;
33830;SDS011;20137;48.834;8.732;2023-07-29T10:21:47;2.17;;;1.30;;
33830;SDS011;20137;48.834;8.732;2023-07-29T10:24:15;2.20;;;1.20;;
33830;SDS011;20137;48.834;8.732;2023-07-29T10:26:47;1.20;;;0.98;;
33830;SDS011;20137;48.834;8.732;2023-07-29T10:29:17;1.00;;;0.80;;
33830;SDS011;20137;48.834;8.732;2023-07-29T10:31:46;1.63;;;1.00;;
33830;SDS011;20137;48.834;8.732;2023-07-29T10:34:12;2.28;;;1.30;;
33830;SDS011;20137;48.834;8.732;2023-07-29T10:36:39;3.83;;;1.88;;
33830;SDS011;20137;48.834;8.732;2023-07-29T10:39:06;2.78;;;1.55;;
33830;SDS011;20137;48.834;8.732;2023-07-29T10:47:15;0.85;;;0.82;;
33830;SDS011;20137;48.834;8.732;2023-07-29T10:49:41;0.93;;;0.80;;
33830;SDS011;20137;48.834;8.732;2023-07-29T10:52:07;1.20;;;1.00;;
33830;SDS011;20137;48.834;8.732;2023-07-29T10:54:43;1.42;;;1.02;;
33830;SDS011;20137;48.834;8.732;2023-07-29T10:57:31;2.10;;;0.90;;
33830;SDS011;20137;48.834;8.732;2023-07-29T10:59:59;1.42;;;0.98;;
33830;SDS011;20137;48.834;8.732;2023-07-29T11:02:29;1.27;;;1.10;;
33830;SDS011;20137;48.834;8.732;2023-07-29T11:04:55;1.42;;;1.10;;
33830;SDS011;20137;48.834;8.732;2023-07-29T11:07:22;1.77;;;1.05;;
33830;SDS011;20137;48.834;8.732;2023-07-29T11:09:52;1.70;;;0.93;;
33830;SDS011;20137;48.834;8.732;2023-07-29T11:12:44;1.77;;;1.17;;
33830;SDS011;20137;48.834;8.732;2023-07-29T11:18:01;1.40;;;1.00;;
33830;SDS011;20137;48.834;8.732;2023-07-29T11:20:31;1.95;;;1.15;;
33830;SDS011;20137;48.834;8.732;2023-07-29T11:23:01;1.73;;;0.95;;
33830;SDS011;20137;48.834;8.732;2023-07-29T11:25:31;1.65;;;1.15;;
33830;SDS011;20137;48.834;8.732;2023-07-29T11:27:59;2.53;;;1.10;;
33830;SDS011;20137;48.834;8.732;2023-07-29T11:30:25;1.45;;;1.00;;
33830;SDS011;20137;48.834;8.732;2023-07-29T11:32:52;2.20;;;1.40;;
33830;SDS011;20137;48.834;8.732;2023-07-29T11:35:20;1.88;;;1.40;;
33830;SDS011;20137;48.834;8.732;2023-07-29T11:37:49;2.92;;;1.20;;
33830;SDS011;20137;48.834;8.732;2023-07-29T11:40:16;2.17;;;1.20;;
33830;SDS011;20137;48.834;8.732;2023-07-29T11:42:44;3.35;;;1.58;;
33830;SDS011;20137;48.834;8.732;2023-07-29T11:45:11;3.45;;;1.60;;
33830;SDS011;20137;48.834;8.732;2023-07-29T11:47:38;2.08;;;1.55;;
33830;SDS011;20137;48.834;8.732;2023-07-29T11:50:04;3.03;;;1.52;;
33830;SDS011;20137;48.834;8.732;2023-07-29T11:52:35;1.80;;;1.40;;
33830;SDS011;20137;48.834;8.732;2023-07-29T11:55:02;2.92;;;1.27;;
33830;SDS011;20137;48.834;8.732;2023-07-29T11:57:36;2.30;;;1.55;;
33830;SDS011;20137;48.834;8.732;2023-07-29T12:00:06;1.55;;;1.35;;
33830;SDS011;20137;48.834;8.732;2023-07-29T12:02:39;2.80;;;1.50;;
33830;SDS011;20137;48.834;8.732;2023-07-29T12:05:07;2.10;;;1.75;;
33830;SDS011;20137;48.834;8.732;2023-07-29T12:07:34;2.40;;;1.80;;
33830;SDS011;20137;48.834;8.732;2023-07-29T12:10:01;2.15;;;1.67;;
33830;SDS011;20137;48.834;8.732;2023-07-29T12:12:28;5.03;;;1.73;;
33830;SDS011;20137;48.834;8.732;2023-07-29T12:14:54;3.10;;;1.70;;
33830;SDS011;20137;48.834;8.732;2023-07-29T12:17:20;3.85;;;1.75;;
33830;SDS011;20137;48.834;8.732;2023-07-29T12:19:45;2.20;;;1.58;;
33830;SDS011;20137;48.834;8.732;2023-07-29T12:22:11;4.05;;;1.80;;
33830;SDS011;20137;48.834;8.732;2023-07-29T12:24:38;4.03;;;1.80;;
33830;SDS011;20137;48.834;8.732;2023-07-29T12:27:04;1.60;;;1.40;;
33830;SDS011;20137;48.834;8.732;2023-07-29T12:29:32;2.10;;;1.42;;
33830;SDS011;20137;48.834;8.732;2023-07-29T12:32:05;2.85;;;1.80;;
33830;SDS011;20137;48.834;8.732;2023-07-29T12:34:31;4.75;;;1.58;;
33830;SDS011;20137;48.834;8.732;2023-07-29T12:36:58;2.47;;;1.60;;
33830;SDS011;20137;48.834;8.732;2023-07-29T12:39:25;3.20;;;1.60;;
33830;SDS011;20137;48.834;8.732;2023-07-29T12:41:52;2.47;;;1.60;;
33830;SDS011;20137;48.834;8.732;2023-07-29T12:44:19;4.00;;;1.50;;
33830;SDS011;20137;48.834;8.732;2023-07-29T12:46:45;3.78;;;1.90;;
33830;SDS011;20137;48.834;8.732;2023-07-29T12:49:11;1.95;;;1.58;;
33830;SDS011;20137;48.834;8.732;2023-07-29T12:51:40;2.17;;;1.65;;
33830;SDS011;20137;48.834;8.732;2023-07-29T12:54:06;4.75;;;1.60;;
33830;SDS011;20137;48.834;8.732;2023-07-29T12:56:32;2.17;;;1.45;;
33830;SDS011;20137;48.834;8.732;2023-07-29T12:58:58;1.95;;;1.63;;
33830;SDS011;20137;48.834;8.732;2023-07-29T13:01:24;3.17;;;1.48;;
33830;SDS011;20137;48.834;8.732;2023-07-29T13:03:50;1.90;;;1.50;;
33830;SDS011;20137;48.834;8.732;2023-07-29T13:06:16;2.22;;;1.42;;
33830;SDS011;20137;48.834;8.732;2023-07-29T13:08:42;3.33;;;1.90;;
33830;SDS011;20137;48.834;8.732;2023-07-29T13:11:09;2.53;;;1.77;;
33830;SDS011;20137;48.834;8.732;2023-07-29T13:13:35;2.17;;;1.80;;
33830;SDS011;20137;48.834;8.732;2023-07-29T13:16:00;4.47;;;1.52;;
33830;SDS011;20137;48.834;8.732;2023-07-29T13:18:26;4.80;;;1.42;;
33830;SDS011;20137;48.834;8.732;2023-07-29T13:20:52;2.13;;;1.67;;
33830;SDS011;20137;48.834;8.732;2023-07-29T13:23:18;3.63;;;1.60;;
33830;SDS011;20137;48.834;8.732;2023-07-29T13:25:44;4.07;;;1.45;;
33830;SDS011;20137;48.834;8.732;2023-07-29T13:28:10;1.75;;;1.30;;
33830;SDS011;20137;48.834;8.732;2023-07-29T13:30:38;3.78;;;1.85;;
33830;SDS011;20137;48.834;8.732;2023-07-29T13:33:06;4.35;;;1.50;;
33830;SDS011;20137;48.834;8.732;2023-07-29T13:35:32;3.00;;;1.63;;
33830;SDS011;20137;48.834;8.732;2023-07-29T13:37:58;2.63;;;1.50;;
33830;SDS011;20137;48.834;8.732;2023-07-29T13:40:25;2.05;;;1.50;;
33830;SDS011;20137;48.834;8.732;2023-07-29T13:42:51;2.95;;;1.70;;
33830;SDS011;20137;48.834;8.732;2023-07-29T13:45:17;6.15;;;1.90;;
33830;SDS011;20137;48.834;8.732;2023-07-29T13:47:43;4.60;;;1.92;;
33830;SDS011;20137;48.834;8.732;2023-07-29T13:50:09;2.17;;;1.58;;
33830;SDS011;20137;48.834;8.732;2023-07-29T13:52:36;2.17;;;1.52;;
33830;SDS011;20137;48.834;8.732;2023-07-29T13:55:02;2.15;;;1.50;;
33830;SDS011;20137;48.834;8.732;2023-07-29T13:57:31;3.33;;;2.00;;
33830;SDS011;20137;48.834;8.732;2023-07-29T13:59:57;3.50;;;1.58;;
33830;SDS011;20137;48.834;8.732;2023-07-29T14:02:23;2.03;;;1.23;;
33830;SDS011;20137;48.834;8.732;2023-07-29T14:04:51;4.97;;;2.15;;
33830;SDS011;20137;48.834;8.732;2023-07-29T14:07:17;3.00;;;2.22;;
33830;SDS011;20137;48.834;8.732;2023-07-29T14:09:43;4.47;;;2.28;;
33830;SDS011;20137;48.834;8.732;2023-07-29T14:12:09;3.85;;;1.60;;
33830;SDS011;20137;48.834;8.732;2023-07-29T14:14:39;6.35;;;2.47;;
33830;SDS011;20137;48.834;8.732;2023-07-29T14:17:08;2.72;;;1.92;;
33830;SDS011;20137;48.834;8.732;2023-07-29T14:19:35;4.38;;;2.13;;
33830;SDS011;20137;48.834;8.732;2023-07-29T14:22:03;3.67;;;1.85;;
33830;SDS011;20137;48.834;8.732;2023-07-29T14:24:29;9.80;;;3.10;;
33830;SDS011;20137;48.834;8.732;2023-07-29T14:26:55;3.15;;;2.00;;
33830;SDS011;20137;48.834;8.732;2023-07-29T14:29:20;4.65;;;1.92;;
33830;SDS011;20137;48.834;8.732;2023-07-29T14:31:46;3.22;;;2.13;;
33830;SDS011;20137;48.834;8.732;2023-07-29T14:34:12;3.45;;;1.55;;
33830;SDS011;20137;48.834;8.732;2023-07-29T14:36:38;2.45;;;2.13;;
33830;SDS011;20137;48.834;8.732;2023-07-29T14:39:05;5.80;;;1.70;;
33830;SDS011;20137;48.834;8.732;2023-07-29T14:41:31;2.85;;;1.92;;
33830;SDS011;20137;48.834;8.732;2023-07-29T14:43:56;3.40;;;1.80;;
33830;SDS011;20137;48.834;8.732;2023-07-29T14:46:22;2.60;;;1.58;;
33830;SDS011;20137;48.834;8.732;2023-07-29T14:48:48;3.17;;;1.90;;
33830;SDS011;20137;48.834;8.732;2023-07-29T14:51:14;6.82;;;2.00;;
33830;SDS011;20137;48.834;8.732;2023-07-29T14:53:40;4.50;;;2.22;;
33830;SDS011;20137;48.834;8.732;2023-07-29T14:56:06;1.88;;;1.70;;
33830;SDS011;20137;48.834;8.732;2023-07-29T14:58:32;2.28;;;1.80;;
33830;SDS011;20137;48.834;8.732;2023-07-29T15:00:57;2.10;;;1.65;;
33830;SDS011;20137;48.834;8.732;2023-07-29T15:03:23;2.55;;;2.03;;
33830;SDS011;20137;48.834;8.732;2023-07-29T15:05:49;3.25;;;2.08;;